sensor_id;sensor_type;location;lat;lon;timestamp;temperature;humidity
83019;DHT22;72834;40.104;18.336;2024-02-23T00:00:55;10.90;99.90
83019;DHT22;72834;40.104;18.336;2024-02-23T00:03:22;10.90;99.90
83019;DHT22;72834;40.104;18.336;2024-02-23T00:05:48;10.90;99.90
83019;DHT22;72834;40.104;18.336;2024-02-23T00:08:14;11.00;99.90
83019;DHT22;72834;40.104;18.336;2024-02-23T00:10:40;10.90;99.90
83019;DHT22;72834;40.104;18.336;2024-02-23T00:13:07;10.90;99.90
83019;DHT22;72834;40.104;18.336;2024-02-23T00:15:33;10.90;99.90
83019;DHT22;72834;40.104;18.336;2024-02-23T00:17:59;10.90;99.90
83019;DHT22;72834;40.104;18.336;2024-02-23T00:20:26;10.80;99.90
83019;DHT22;72834;40.104;18.336;2024-02-23T00:22:52;10.80;99.90
83019;DHT22;72834;40.104;18.336;2024-02-23T00:25:19;10.90;99.90
83019;DHT22;72834;40.104;18.336;2024-02-23T00:27:45;10.90;99.90
83019;DHT22;72834;40.104;18.336;2024-02-23T00:30:13;10.90;99.90
83019;DHT22;72834;40.104;18.336;2024-02-23T00:32:40;11.00;99.90
83019;DHT22;72834;40.104;18.336;2024-02-23T00:35:06;11.00;99.90
83019;DHT22;72834;40.104;18.336;2024-02-23T00:37:33;11.00;99.90
83019;DHT22;72834;40.104;18.336;2024-02-23T00:40:02;11.10;99.90
83019;DHT22;72834;40.104;18.336;2024-02-23T00:42:30;11.10;99.90
83019;DHT22;72834;40.104;18.336;2024-02-23T00:44:57;11.00;99.90
83019;DHT22;72834;40.104;18.336;2024-02-23T00:47:23;11.10;99.90
83019;DHT22;72834;40.104;18.336;2024-02-23T00:49:50;11.00;99.90
83019;DHT22;72834;40.104;18.336;2024-02-23T00:52:16;10.90;99.90
83019;DHT22;72834;40.104;18.336;2024-02-23T00:54:43;11.00;99.90
83019;DHT22;72834;40.104;18.336;2024-02-23T00:57:09;11.00;99.90
83019;DHT22;72834;40.104;18.336;2024-02-23T00:59:35;11.10;99.90
83019;DHT22;72834;40.104;18.336;2024-02-23T01:02:01;11.10;99.90
83019;DHT22;72834;40.104;18.336;2024-02-23T01:04:28;10.90;99.90
83019;DHT22;72834;40.104;18.336;2024-02-23T01:06:54;11.00;99.90
83019;DHT22;72834;40.104;18.336;2024-02-23T01:09:20;11.00;99.90
83019;DHT22;72834;40.104;18.336;2024-02-23T01:11:47;11.00;99.90
83019;DHT22;72834;40.104;18.336;2024-02-23T01:14:14;10.90;99.90
83019;DHT22;72834;40.104;18.336;2024-02-23T01:16:40;10.90;99.90
83019;DHT22;72834;40.104;18.336;2024-02-23T01:19:06;11.00;99.90
83019;DHT22;72834;40.104;18.336;2024-02-23T01:21:33;10.90;99.90
83019;DHT22;72834;40.104;18.336;2024-02-23T01:23:59;10.80;99.90
83019;DHT22;72834;40.104;18.336;2024-02-23T01:26:26;10.80;99.90
83019;DHT22;72834;40.104;18.336;2024-02-23T01:28:53;10.90;99.90
83019;DHT22;72834;40.104;18.336;2024-02-23T01:31:20;10.90;99.90
83019;DHT22;72834;40.104;18.336;2024-02-23T01:33:46;10.80;99.90
83019;DHT22;72834;40.104;18.336;2024-02-23T01:36:13;10.80;99.90
83019;DHT22;72834;40.104;18.336;2024-02-23T01:38:39;10.80;99.90
83019;DHT22;72834;40.104;18.336;2024-02-23T01:41:08;10.90;99.90
83019;DHT22;72834;40.104;18.336;2024-02-23T01:43:37;10.80;99.90
83019;DHT22;72834;40.104;18.336;2024-02-23T01:46:04;10.70;99.90
83019;DHT22;72834;40.104;18.336;2024-02-23T01:48:32;10.60;99.90
83019;DHT22;72834;40.104;18.336;2024-02-23T01:50:58;10.60;99.90
83019;DHT22;72834;40.104;18.336;2024-02-23T01:53:25;10.60;99.90
83019;DHT22;72834;40.104;18.336;2024-02-23T01:55:53;10.50;99.90
83019;DHT22;72834;40.104;18.336;2024-02-23T01:58:21;10.60;99.90
83019;DHT22;72834;40.104;18.336;2024-02-23T02:00:47;10.60;99.90
83019;DHT22;72834;40.104;18.336;2024-02-23T02:03:15;10.50;99.90
83019;DHT22;72834;40.104;18.336;2024-02-23T02:05:41;10.50;99.90
83019;DHT22;72834;40.104;18.336;2024-02-23T02:08:07;10.60;99.90
83019;DHT22;72834;40.104;18.336;2024-02-23T02:10:33;10.60;99.90
83019;DHT22;72834;40.104;18.336;2024-02-23T02:13:04;10.60;99.90
83019;DHT22;72834;40.104;18.336;2024-02-23T02:15:30;10.50;99.90
83019;DHT22;72834;40.104;18.336;2024-02-23T02:17:57;10.50;99.90
83019;DHT22;72834;40.104;18.336;2024-02-23T02:20:28;10.50;99.90
83019;DHT22;72834;40.104;18.336;2024-02-23T02:22:58;10.60;99.90
83019;DHT22;72834;40.104;18.336;2024-02-23T02:25:24;10.70;99.90
83019;DHT22;72834;40.104;18.336;2024-02-23T02:27:50;10.70;99.90
83019;DHT22;72834;40.104;18.336;2024-02-23T02:30:17;10.70;99.90
83019;DHT22;72834;40.104;18.336;2024-02-23T02:32:43;10.80;99.90
83019;DHT22;72834;40.104;18.336;2024-02-23T02:35:11;10.80;99.90
83019;DHT22;72834;40.104;18.336;2024-02-23T02:37:38;10.80;99.90
83019;DHT22;72834;40.104;18.336;2024-02-23T02:40:05;10.70;99.90
83019;DHT22;72834;40.104;18.336;2024-02-23T02:42:33;10.80;99.90
83019;DHT22;72834;40.104;18.336;2024-02-23T02:44:59;10.70;99.90
83019;DHT22;72834;40.104;18.336;2024-02-23T02:47:26;10.80;99.90
83019;DHT22;72834;40.104;18.336;2024-02-23T02:49:52;10.80;99.90
83019;DHT22;72834;40.104;18.336;2024-02-23T02:52:18;10.90;99.90
83019;DHT22;72834;40.104;18.336;2024-02-23T02:54:47;10.90;99.90
83019;DHT22;72834;40.104;18.336;2024-02-23T02:57:14;10.90;99.90
83019;DHT22;72834;40.104;18.336;2024-02-23T02:59:40;10.90;99.90
83019;DHT22;72834;40.104;18.336;2024-02-23T03:02:07;10.90;99.90
83019;DHT22;72834;40.104;18.336;2024-02-23T03:04:33;10.90;99.90
83019;DHT22;72834;40.104;18.336;2024-02-23T03:07:01;11.00;99.90
83019;DHT22;72834;40.104;18.336;2024-02-23T03:09:27;11.00;99.90
83019;DHT22;72834;40.104;18.336;2024-02-23T03:11:53;11.00;99.90
83019;DHT22;72834;40.104;18.336;2024-02-23T03:14:19;10.90;99.90
83019;DHT22;72834;40.104;18.336;2024-02-23T03:16:49;10.90;99.90
83019;DHT22;72834;40.104;18.336;2024-02-23T03:19:15;11.00;99.90
83019;DHT22;72834;40.104;18.336;2024-02-23T03:21:41;11.00;99.90
83019;DHT22;72834;40.104;18.336;2024-02-23T03:24:07;11.00;99.90
83019;DHT22;72834;40.104;18.336;2024-02-23T03:26:34;11.00;99.90
83019;DHT22;72834;40.104;18.336;2024-02-23T03:29:00;11.10;99.90
83019;DHT22;72834;40.104;18.336;2024-02-23T03:31:26;11.10;99.90
83019;DHT22;72834;40.104;18.336;2024-02-23T03:33:52;11.10;99.90
83019;DHT22;72834;40.104;18.336;2024-02-23T03:36:19;11.10;99.90
83019;DHT22;72834;40.104;18.336;2024-02-23T03:38:45;11.20;99.90
83019;DHT22;72834;40.104;18.336;2024-02-23T03:41:11;11.20;99.90
83019;DHT22;72834;40.104;18.336;2024-02-23T03:43:37;11.20;99.90
83019;DHT22;72834;40.104;18.336;2024-02-23T03:46:06;11.20;99.90
83019;DHT22;72834;40.104;18.336;2024-02-23T03:48:32;11.30;99.90
83019;DHT22;72834;40.104;18.336;2024-02-23T03:50:58;11.30;99.90
83019;DHT22;72834;40.104;18.336;2024-02-23T03:53:25;11.30;99.90
83019;DHT22;72834;40.104;18.336;2024-02-23T03:55:51;11.30;99.90
83019;DHT22;72834;40.104;18.336;2024-02-23T03:58:17;11.30;99.90
83019;DHT22;72834;40.104;18.336;2024-02-23T04:00:43;11.30;99.90
83019;DHT22;72834;40.104;18.336;2024-02-23T04:03:10;11.30;99.90
83019;DHT22;72834;40.104;18.336;2024-02-23T04:05:36;11.30;99.90
83019;DHT22;72834;40.104;18.336;2024-02-23T04:08:02;11.30;99.90
83019;DHT22;72834;40.104;18.336;2024-02-23T04:10:29;11.30;99.90
83019;DHT22;72834;40.104;18.336;2024-02-23T04:12:55;11.20;99.90
83019;DHT22;72834;40.104;18.336;2024-02-23T04:15:22;11.20;99.90
83019;DHT22;72834;40.104;18.336;2024-02-23T04:17:48;11.30;99.90
83019;DHT22;72834;40.104;18.336;2024-02-23T04:20:15;11.20;99.90
83019;DHT22;72834;40.104;18.336;2024-02-23T04:22:41;11.20;99.90
83019;DHT22;72834;40.104;18.336;2024-02-23T04:25:07;11.30;99.90
83019;DHT22;72834;40.104;18.336;2024-02-23T04:27:34;11.30;99.90
83019;DHT22;72834;40.104;18.336;2024-02-23T04:30:00;11.30;99.90
83019;DHT22;72834;40.104;18.336;2024-02-23T04:32:26;11.30;99.90
83019;DHT22;72834;40.104;18.336;2024-02-23T04:34:53;11.30;99.90
83019;DHT22;72834;40.104;18.336;2024-02-23T04:37:19;11.30;99.90
83019;DHT22;72834;40.104;18.336;2024-02-23T04:39:45;11.40;99.90
83019;DHT22;72834;40.104;18.336;2024-02-23T04:42:11;11.40;99.90
83019;DHT22;72834;40.104;18.336;2024-02-23T04:44:38;11.40;99.90
83019;DHT22;72834;40.104;18.336;2024-02-23T04:47:04;11.50;99.90
83019;DHT22;72834;40.104;18.336;2024-02-23T04:49:30;11.50;99.90
83019;DHT22;72834;40.104;18.336;2024-02-23T04:51:57;11.50;99.90
83019;DHT22;72834;40.104;18.336;2024-02-23T04:54:23;11.50;99.90
83019;DHT22;72834;40.104;18.336;2024-02-23T04:56:49;11.50;99.90
83019;DHT22;72834;40.104;18.336;2024-02-23T04:59:16;11.60;99.90
83019;DHT22;72834;40.104;18.336;2024-02-23T05:01:42;11.60;99.90
83019;DHT22;72834;40.104;18.336;2024-02-23T05:04:08;11.60;99.90
83019;DHT22;72834;40.104;18.336;2024-02-23T05:06:35;11.60;99.90
83019;DHT22;72834;40.104;18.336;2024-02-23T05:09:01;11.60;99.90
83019;DHT22;72834;40.104;18.336;2024-02-23T05:11:29;11.60;99.90
83019;DHT22;72834;40.104;18.336;2024-02-23T05:13:55;11.60;99.90
83019;DHT22;72834;40.104;18.336;2024-02-23T05:16:21;11.50;99.90
83019;DHT22;72834;40.104;18.336;2024-02-23T05:18:47;11.60;99.90
83019;DHT22;72834;40.104;18.336;2024-02-23T05:21:17;11.60;99.90
83019;DHT22;72834;40.104;18.336;2024-02-23T05:23:43;11.60;99.90
83019;DHT22;72834;40.104;18.336;2024-02-23T05:26:09;11.60;99.90
83019;DHT22;72834;40.104;18.336;2024-02-23T05:28:36;11.60;99.90
83019;DHT22;72834;40.104;18.336;2024-02-23T05:31:04;11.60;99.90
83019;DHT22;72834;40.104;18.336;2024-02-23T05:33:30;11.60;99.90
83019;DHT22;72834;40.104;18.336;2024-02-23T05:35:56;11.60;99.90
83019;DHT22;72834;40.104;18.336;2024-02-23T05:38:23;11.60;99.90
83019;DHT22;72834;40.104;18.336;2024-02-23T05:40:49;11.70;99.90
83019;DHT22;72834;40.104;18.336;2024-02-23T05:43:16;11.70;99.90
83019;DHT22;72834;40.104;18.336;2024-02-23T05:45:42;11.70;99.90
83019;DHT22;72834;40.104;18.336;2024-02-23T05:48:09;11.70;99.90
83019;DHT22;72834;40.104;18.336;2024-02-23T05:50:36;11.70;99.90
83019;DHT22;72834;40.104;18.336;2024-02-23T05:53:02;11.60;99.90
83019;DHT22;72834;40.104;18.336;2024-02-23T05:55:30;11.70;99.90
83019;DHT22;72834;40.104;18.336;2024-02-23T05:57:56;11.70;99.90
83019;DHT22;72834;40.104;18.336;2024-02-23T06:00:23;11.80;99.90
83019;DHT22;72834;40.104;18.336;2024-02-23T06:02:49;11.80;99.90
83019;DHT22;72834;40.104;18.336;2024-02-23T06:05:16;11.80;99.90
83019;DHT22;72834;40.104;18.336;2024-02-23T06:07:42;11.80;99.90
83019;DHT22;72834;40.104;18.336;2024-02-23T06:10:09;11.80;99.90
83019;DHT22;72834;40.104;18.336;2024-02-23T06:12:35;11.80;99.90
83019;DHT22;72834;40.104;18.336;2024-02-23T06:15:01;11.90;99.90
83019;DHT22;72834;40.104;18.336;2024-02-23T06:17:29;11.90;99.90
83019;DHT22;72834;40.104;18.336;2024-02-23T06:19:56;11.90;99.90
83019;DHT22;72834;40.104;18.336;2024-02-23T06:22:24;11.90;99.90
83019;DHT22;72834;40.104;18.336;2024-02-23T06:24:51;12.00;99.90
83019;DHT22;72834;40.104;18.336;2024-02-23T06:27:18;12.00;99.90
83019;DHT22;72834;40.104;18.336;2024-02-23T06:29:44;12.00;99.90
83019;DHT22;72834;40.104;18.336;2024-02-23T06:32:10;12.10;99.90
83019;DHT22;72834;40.104;18.336;2024-02-23T06:34:36;12.20;99.90
83019;DHT22;72834;40.104;18.336;2024-02-23T06:37:03;12.30;99.90
83019;DHT22;72834;40.104;18.336;2024-02-23T06:39:29;12.40;99.90
83019;DHT22;72834;40.104;18.336;2024-02-23T06:41:55;12.50;99.90
83019;DHT22;72834;40.104;18.336;2024-02-23T06:44:23;12.60;99.90
83019;DHT22;72834;40.104;18.336;2024-02-23T06:46:49;12.70;99.90
83019;DHT22;72834;40.104;18.336;2024-02-23T06:49:16;12.90;99.90
83019;DHT22;72834;40.104;18.336;2024-02-23T06:51:42;13.00;99.90
83019;DHT22;72834;40.104;18.336;2024-02-23T06:54:08;13.10;99.90
83019;DHT22;72834;40.104;18.336;2024-02-23T06:56:34;13.20;99.90
83019;DHT22;72834;40.104;18.336;2024-02-23T06:59:03;13.30;99.90
83019;DHT22;72834;40.104;18.336;2024-02-23T07:01:29;13.40;99.90
83019;DHT22;72834;40.104;18.336;2024-02-23T07:03:56;13.40;99.90
83019;DHT22;72834;40.104;18.336;2024-02-23T07:06:22;13.50;99.90
83019;DHT22;72834;40.104;18.336;2024-02-23T07:08:48;13.50;99.90
83019;DHT22;72834;40.104;18.336;2024-02-23T07:11:15;13.50;99.90
83019;DHT22;72834;40.104;18.336;2024-02-23T07:13:43;13.60;99.90
83019;DHT22;72834;40.104;18.336;2024-02-23T07:16:11;13.60;99.90
83019;DHT22;72834;40.104;18.336;2024-02-23T07:18:37;13.70;99.90
83019;DHT22;72834;40.104;18.336;2024-02-23T07:21:04;13.70;99.90
83019;DHT22;72834;40.104;18.336;2024-02-23T07:23:30;13.70;99.90
83019;DHT22;72834;40.104;18.336;2024-02-23T07:25:56;13.80;99.90
83019;DHT22;72834;40.104;18.336;2024-02-23T07:28:22;13.80;99.90
83019;DHT22;72834;40.104;18.336;2024-02-23T07:30:49;13.90;99.90
83019;DHT22;72834;40.104;18.336;2024-02-23T07:33:15;13.90;99.90
83019;DHT22;72834;40.104;18.336;2024-02-23T07:35:41;13.90;99.90
83019;DHT22;72834;40.104;18.336;2024-02-23T07:38:08;14.00;99.90
83019;DHT22;72834;40.104;18.336;2024-02-23T07:40:35;14.00;99.90
83019;DHT22;72834;40.104;18.336;2024-02-23T07:43:01;14.00;99.90
83019;DHT22;72834;40.104;18.336;2024-02-23T07:45:27;14.00;99.90
83019;DHT22;72834;40.104;18.336;2024-02-23T07:47:53;14.00;99.90
83019;DHT22;72834;40.104;18.336;2024-02-23T07:50:19;14.00;99.90
83019;DHT22;72834;40.104;18.336;2024-02-23T07:52:46;14.10;99.90
83019;DHT22;72834;40.104;18.336;2024-02-23T07:55:12;14.10;99.90
83019;DHT22;72834;40.104;18.336;2024-02-23T07:57:38;14.20;99.90
83019;DHT22;72834;40.104;18.336;2024-02-23T08:00:06;14.20;99.90
83019;DHT22;72834;40.104;18.336;2024-02-23T08:02:38;14.20;99.90
83019;DHT22;72834;40.104;18.336;2024-02-23T08:05:06;14.20;99.90
83019;DHT22;72834;40.104;18.336;2024-02-23T08:07:33;14.20;99.90
83019;DHT22;72834;40.104;18.336;2024-02-23T08:09:59;14.20;99.90
83019;DHT22;72834;40.104;18.336;2024-02-23T08:12:26;14.30;99.90
83019;DHT22;72834;40.104;18.336;2024-02-23T08:14:52;14.30;99.90
83019;DHT22;72834;40.104;18.336;2024-02-23T08:17:19;14.30;99.90
83019;DHT22;72834;40.104;18.336;2024-02-23T08:19:46;14.30;99.90
83019;DHT22;72834;40.104;18.336;2024-02-23T08:22:12;14.30;99.90
83019;DHT22;72834;40.104;18.336;2024-02-23T08:24:39;14.30;99.90
83019;DHT22;72834;40.104;18.336;2024-02-23T08:27:05;14.30;99.90
83019;DHT22;72834;40.104;18.336;2024-02-23T08:29:31;14.30;99.90
83019;DHT22;72834;40.104;18.336;2024-02-23T08:31:57;14.30;99.90
83019;DHT22;72834;40.104;18.336;2024-02-23T08:34:23;14.50;99.90
83019;DHT22;72834;40.104;18.336;2024-02-23T08:36:51;14.50;99.90
83019;DHT22;72834;40.104;18.336;2024-02-23T08:39:17;14.60;99.90
83019;DHT22;72834;40.104;18.336;2024-02-23T08:41:43;14.70;99.90
83019;DHT22;72834;40.104;18.336;2024-02-23T08:44:09;14.90;99.90
83019;DHT22;72834;40.104;18.336;2024-02-23T08:46:36;15.00;99.90
83019;DHT22;72834;40.104;18.336;2024-02-23T08:49:05;15.00;99.90
83019;DHT22;72834;40.104;18.336;2024-02-23T08:51:31;15.10;99.90
83019;DHT22;72834;40.104;18.336;2024-02-23T08:53:58;15.20;99.90
83019;DHT22;72834;40.104;18.336;2024-02-23T08:56:29;15.20;99.90
83019;DHT22;72834;40.104;18.336;2024-02-23T08:58:55;15.30;99.90
83019;DHT22;72834;40.104;18.336;2024-02-23T09:01:21;15.30;99.90
83019;DHT22;72834;40.104;18.336;2024-02-23T09:03:47;15.40;99.90
83019;DHT22;72834;40.104;18.336;2024-02-23T09:06:14;15.50;99.90
83019;DHT22;72834;40.104;18.336;2024-02-23T09:08:40;15.60;99.90
83019;DHT22;72834;40.104;18.336;2024-02-23T09:11:07;15.70;99.90
83019;DHT22;72834;40.104;18.336;2024-02-23T09:13:33;15.70;99.90
83019;DHT22;72834;40.104;18.336;2024-02-23T09:15:59;15.70;99.90
83019;DHT22;72834;40.104;18.336;2024-02-23T09:18:26;15.70;99.90
83019;DHT22;72834;40.104;18.336;2024-02-23T09:20:52;15.80;99.90
83019;DHT22;72834;40.104;18.336;2024-02-23T09:23:18;15.80;99.90
83019;DHT22;72834;40.104;18.336;2024-02-23T09:25:44;15.90;99.90
83019;DHT22;72834;40.104;18.336;2024-02-23T09:28:11;16.00;99.90
83019;DHT22;72834;40.104;18.336;2024-02-23T09:30:38;16.00;99.90
83019;DHT22;72834;40.104;18.336;2024-02-23T09:33:04;16.00;99.90
83019;DHT22;72834;40.104;18.336;2024-02-23T09:35:31;16.00;99.90
83019;DHT22;72834;40.104;18.336;2024-02-23T09:37:57;16.00;99.90
83019;DHT22;72834;40.104;18.336;2024-02-23T09:40:23;15.90;99.90
83019;DHT22;72834;40.104;18.336;2024-02-23T09:42:59;15.90;99.90
83019;DHT22;72834;40.104;18.336;2024-02-23T09:45:26;16.00;99.90
83019;DHT22;72834;40.104;18.336;2024-02-23T09:47:53;16.10;99.90
83019;DHT22;72834;40.104;18.336;2024-02-23T09:50:23;16.00;99.90
83019;DHT22;72834;40.104;18.336;2024-02-23T09:52:50;16.00;99.90
83019;DHT22;72834;40.104;18.336;2024-02-23T09:55:17;16.00;99.90
83019;DHT22;72834;40.104;18.336;2024-02-23T09:57:48;16.00;99.90
83019;DHT22;72834;40.104;18.336;2024-02-23T10:00:17;15.90;99.90
83019;DHT22;72834;40.104;18.336;2024-02-23T10:02:44;15.90;99.90
83019;DHT22;72834;40.104;18.336;2024-02-23T10:05:11;15.90;99.90
83019;DHT22;72834;40.104;18.336;2024-02-23T10:07:40;15.90;99.90
83019;DHT22;72834;40.104;18.336;2024-02-23T10:10:08;15.90;99.90
83019;DHT22;72834;40.104;18.336;2024-02-23T10:12:34;15.90;99.90
83019;DHT22;72834;40.104;18.336;2024-02-23T10:15:04;16.00;99.90
83019;DHT22;72834;40.104;18.336;2024-02-23T10:17:31;16.10;99.90
83019;DHT22;72834;40.104;18.336;2024-02-23T10:19:59;16.20;99.90
83019;DHT22;72834;40.104;18.336;2024-02-23T10:22:25;16.30;99.90
83019;DHT22;72834;40.104;18.336;2024-02-23T10:24:51;16.30;99.90
83019;DHT22;72834;40.104;18.336;2024-02-23T10:27:18;16.40;99.90
83019;DHT22;72834;40.104;18.336;2024-02-23T10:29:44;16.40;99.90
83019;DHT22;72834;40.104;18.336;2024-02-23T10:32:15;16.40;99.90
83019;DHT22;72834;40.104;18.336;2024-02-23T10:34:43;16.50;99.90
83019;DHT22;72834;40.104;18.336;2024-02-23T10:37:09;16.30;99.90
83019;DHT22;72834;40.104;18.336;2024-02-23T10:39:36;16.30;99.90
83019;DHT22;72834;40.104;18.336;2024-02-23T10:42:09;16.30;99.90
83019;DHT22;72834;40.104;18.336;2024-02-23T10:44:37;16.40;99.90
83019;DHT22;72834;40.104;18.336;2024-02-23T10:47:05;16.60;99.90
83019;DHT22;72834;40.104;18.336;2024-02-23T10:49:33;16.70;99.90
83019;DHT22;72834;40.104;18.336;2024-02-23T10:51:59;17.00;99.90
83019;DHT22;72834;40.104;18.336;2024-02-23T10:54:26;17.10;99.90
83019;DHT22;72834;40.104;18.336;2024-02-23T10:56:53;17.30;99.90
83019;DHT22;72834;40.104;18.336;2024-02-23T10:59:21;17.30;99.90
83019;DHT22;72834;40.104;18.336;2024-02-23T11:01:50;17.30;99.90
83019;DHT22;72834;40.104;18.336;2024-02-23T11:04:17;17.20;99.90
83019;DHT22;72834;40.104;18.336;2024-02-23T11:06:52;17.40;99.90
83019;DHT22;72834;40.104;18.336;2024-02-23T11:09:21;17.60;99.90
83019;DHT22;72834;40.104;18.336;2024-02-23T11:11:55;18.00;99.90
83019;DHT22;72834;40.104;18.336;2024-02-23T11:14:38;18.10;99.90
83019;DHT22;72834;40.104;18.336;2024-02-23T11:17:05;17.90;99.90
83019;DHT22;72834;40.104;18.336;2024-02-23T11:19:36;17.70;99.90
83019;DHT22;72834;40.104;18.336;2024-02-23T11:22:03;17.50;99.90
83019;DHT22;72834;40.104;18.336;2024-02-23T11:24:30;17.40;99.90
83019;DHT22;72834;40.104;18.336;2024-02-23T11:27:01;17.30;99.90
83019;DHT22;72834;40.104;18.336;2024-02-23T11:29:34;17.40;99.90
83019;DHT22;72834;40.104;18.336;2024-02-23T11:32:02;17.60;99.90
83019;DHT22;72834;40.104;18.336;2024-02-23T11:34:30;17.50;99.90
83019;DHT22;72834;40.104;18.336;2024-02-23T11:36:56;17.30;99.90
83019;DHT22;72834;40.104;18.336;2024-02-23T11:39:26;17.30;99.90
83019;DHT22;72834;40.104;18.336;2024-02-23T11:41:53;17.80;99.90
83019;DHT22;72834;40.104;18.336;2024-02-23T11:44:19;18.30;99.90
83019;DHT22;72834;40.104;18.336;2024-02-23T11:46:46;18.50;99.90
83019;DHT22;72834;40.104;18.336;2024-02-23T11:49:14;18.50;99.90
83019;DHT22;72834;40.104;18.336;2024-02-23T11:51:42;18.40;99.90
83019;DHT22;72834;40.104;18.336;2024-02-23T11:54:08;18.40;99.90
83019;DHT22;72834;40.104;18.336;2024-02-23T11:56:35;18.60;99.90
83019;DHT22;72834;40.104;18.336;2024-02-23T11:59:01;18.80;99.90
83019;DHT22;72834;40.104;18.336;2024-02-23T12:01:31;19.00;99.90
83019;DHT22;72834;40.104;18.336;2024-02-23T12:03:58;18.90;99.90
83019;DHT22;72834;40.104;18.336;2024-02-23T12:06:24;19.20;99.90
83019;DHT22;72834;40.104;18.336;2024-02-23T12:08:55;19.20;99.90
83019;DHT22;72834;40.104;18.336;2024-02-23T12:11:21;19.30;99.90
83019;DHT22;72834;40.104;18.336;2024-02-23T12:13:48;19.20;99.90
83019;DHT22;72834;40.104;18.336;2024-02-23T12:16:15;18.90;99.90
83019;DHT22;72834;40.104;18.336;2024-02-23T12:18:41;18.40;99.90
83019;DHT22;72834;40.104;18.336;2024-02-23T12:21:08;18.00;99.90
83019;DHT22;72834;40.104;18.336;2024-02-23T12:23:45;18.10;99.90
83019;DHT22;72834;40.104;18.336;2024-02-23T12:26:15;18.00;99.90
83019;DHT22;72834;40.104;18.336;2024-02-23T12:28:42;17.90;99.90
83019;DHT22;72834;40.104;18.336;2024-02-23T12:31:08;17.70;99.90
83019;DHT22;72834;40.104;18.336;2024-02-23T12:33:37;17.40;99.90
83019;DHT22;72834;40.104;18.336;2024-02-23T12:36:04;17.30;99.90
83019;DHT22;72834;40.104;18.336;2024-02-23T12:38:31;17.50;99.90
83019;DHT22;72834;40.104;18.336;2024-02-23T12:40:57;17.50;99.90
83019;DHT22;72834;40.104;18.336;2024-02-23T12:43:23;17.40;99.90
83019;DHT22;72834;40.104;18.336;2024-02-23T12:45:52;17.20;99.90
83019;DHT22;72834;40.104;18.336;2024-02-23T12:48:19;17.10;99.90
83019;DHT22;72834;40.104;18.336;2024-02-23T12:50:47;17.00;99.90
83019;DHT22;72834;40.104;18.336;2024-02-23T12:56:01;17.00;99.90
83019;DHT22;72834;40.104;18.336;2024-02-23T12:58:28;17.00;99.90
83019;DHT22;72834;40.104;18.336;2024-02-23T13:00:55;17.00;99.90
83019;DHT22;72834;40.104;18.336;2024-02-23T13:03:23;16.90;99.90
83019;DHT22;72834;40.104;18.336;2024-02-23T13:05:50;16.70;99.90
83019;DHT22;72834;40.104;18.336;2024-02-23T13:08:16;16.70;99.90
83019;DHT22;72834;40.104;18.336;2024-02-23T13:10:43;16.60;99.90
83019;DHT22;72834;40.104;18.336;2024-02-23T13:13:10;16.60;99.90
83019;DHT22;72834;40.104;18.336;2024-02-23T13:15:36;16.50;99.90
83019;DHT22;72834;40.104;18.336;2024-02-23T13:18:04;16.50;99.90
83019;DHT22;72834;40.104;18.336;2024-02-23T13:20:30;16.40;99.90
83019;DHT22;72834;40.104;18.336;2024-02-23T13:22:57;16.50;99.90
83019;DHT22;72834;40.104;18.336;2024-02-23T13:25:23;16.50;99.90
83019;DHT22;72834;40.104;18.336;2024-02-23T13:27:49;16.50;99.90
83019;DHT22;72834;40.104;18.336;2024-02-23T13:30:15;16.50;99.90
83019;DHT22;72834;40.104;18.336;2024-02-23T13:32:42;16.40;99.90
83019;DHT22;72834;40.104;18.336;2024-02-23T13:35:08;16.40;99.90
83019;DHT22;72834;40.104;18.336;2024-02-23T13:37:35;16.30;99.90
83019;DHT22;72834;40.104;18.336;2024-02-23T13:40:01;16.30;99.90
83019;DHT22;72834;40.104;18.336;2024-02-23T13:42:30;16.20;99.90
83019;DHT22;72834;40.104;18.336;2024-02-23T13:44:56;16.20;99.90
83019;DHT22;72834;40.104;18.336;2024-02-23T13:47:22;16.20;99.90
83019;DHT22;72834;40.104;18.336;2024-02-23T13:49:49;16.20;99.90
83019;DHT22;72834;40.104;18.336;2024-02-23T13:52:15;16.10;99.90
83019;DHT22;72834;40.104;18.336;2024-02-23T13:54:41;16.10;99.90
83019;DHT22;72834;40.104;18.336;2024-02-23T13:57:08;16.10;99.90
83019;DHT22;72834;40.104;18.336;2024-02-23T13:59:35;16.20;99.90
83019;DHT22;72834;40.104;18.336;2024-02-23T14:02:01;16.20;99.90
83019;DHT22;72834;40.104;18.336;2024-02-23T14:04:27;16.20;99.90
83019;DHT22;72834;40.104;18.336;2024-02-23T14:06:53;16.20;99.90
83019;DHT22;72834;40.104;18.336;2024-02-23T14:09:20;16.20;99.90
83019;DHT22;72834;40.104;18.336;2024-02-23T14:11:46;16.10;99.90
83019;DHT22;72834;40.104;18.336;2024-02-23T14:14:12;16.20;99.90
83019;DHT22;72834;40.104;18.336;2024-02-23T14:16:39;16.10;99.90
83019;DHT22;72834;40.104;18.336;2024-02-23T14:19:06;16.10;99.90
83019;DHT22;72834;40.104;18.336;2024-02-23T14:21:32;16.10;99.90
83019;DHT22;72834;40.104;18.336;2024-02-23T14:23:59;16.10;99.90
83019;DHT22;72834;40.104;18.336;2024-02-23T14:26:25;16.00;99.90
83019;DHT22;72834;40.104;18.336;2024-02-23T14:28:52;16.00;99.90
83019;DHT22;72834;40.104;18.336;2024-02-23T14:31:18;16.00;99.90
83019;DHT22;72834;40.104;18.336;2024-02-23T14:33:44;16.00;99.90
83019;DHT22;72834;40.104;18.336;2024-02-23T14:36:11;15.90;99.90
83019;DHT22;72834;40.104;18.336;2024-02-23T14:38:37;15.90;99.90
83019;DHT22;72834;40.104;18.336;2024-02-23T14:41:04;15.90;99.90
83019;DHT22;72834;40.104;18.336;2024-02-23T14:43:35;15.90;99.90
83019;DHT22;72834;40.104;18.336;2024-02-23T14:46:02;15.80;99.90
83019;DHT22;72834;40.104;18.336;2024-02-23T14:48:28;15.90;99.90
83019;DHT22;72834;40.104;18.336;2024-02-23T14:50:54;15.80;99.90
83019;DHT22;72834;40.104;18.336;2024-02-23T14:53:21;15.80;99.90
83019;DHT22;72834;40.104;18.336;2024-02-23T14:55:47;15.80;99.90
83019;DHT22;72834;40.104;18.336;2024-02-23T14:58:13;15.80;99.90
83019;DHT22;72834;40.104;18.336;2024-02-23T15:00:39;15.80;99.90
83019;DHT22;72834;40.104;18.336;2024-02-23T15:03:06;15.80;99.90
83019;DHT22;72834;40.104;18.336;2024-02-23T15:05:34;15.80;99.90
83019;DHT22;72834;40.104;18.336;2024-02-23T15:08:01;15.80;99.90
83019;DHT22;72834;40.104;18.336;2024-02-23T15:10:27;15.80;99.90
83019;DHT22;72834;40.104;18.336;2024-02-23T15:12:54;15.80;99.90
83019;DHT22;72834;40.104;18.336;2024-02-23T15:15:20;15.80;99.90